sensor_id;sensor_type;location;lat;lon;timestamp;pressure;altitude;pressure_sealevel;temperature;humidity
10261;BME280;5175;42.606;23.388;2023-08-24T00:01:33;93951.63;;;22.17;81.98
10261;BME280;5175;42.606;23.388;2023-08-24T00:06:26;93953.97;;;22.19;81.09
10261;BME280;5175;42.606;23.388;2023-08-24T00:08:53;93949.59;;;22.14;81.56
10261;BME280;5175;42.606;23.388;2023-08-24T00:11:20;93951.66;;;22.33;79.85
10261;BME280;5175;42.606;23.388;2023-08-24T00:13:48;93945.84;;;22.34;79.61
10261;BME280;5175;42.606;23.388;2023-08-24T00:16:18;93954.31;;;22.45;79.14
10261;BME280;5175;42.606;23.388;2023-08-24T00:18:45;93960.03;;;22.56;78.13
10261;BME280;5175;42.606;23.388;2023-08-24T00:21:13;93962.84;;;22.59;77.83
10261;BME280;5175;42.606;23.388;2023-08-24T00:23:42;93954.47;;;22.64;78.13
10261;BME280;5175;42.606;23.388;2023-08-24T00:26:08;93947.97;;;22.69;77.51
10261;BME280;5175;42.606;23.388;2023-08-24T00:28:35;93938.69;;;22.42;79.30
10261;BME280;5175;42.606;23.388;2023-08-24T00:31:02;93945.19;;;22.10;81.38
10261;BME280;5175;42.606;23.388;2023-08-24T00:33:30;93940.44;;;22.07;81.16
10261;BME280;5175;42.606;23.388;2023-08-24T00:35:59;93937.84;;;22.10;80.67
10261;BME280;5175;42.606;23.388;2023-08-24T00:38:26;93937.03;;;22.10;81.05
10261;BME280;5175;42.606;23.388;2023-08-24T00:40:55;93932.06;;;21.72;83.41
10261;BME280;5175;42.606;23.388;2023-08-24T00:43:22;93931.22;;;21.83;82.38
10261;BME280;5175;42.606;23.388;2023-08-24T00:45:50;93929.53;;;21.79;83.36
10261;BME280;5175;42.606;23.388;2023-08-24T00:48:17;93928.50;;;21.83;82.89
10261;BME280;5175;42.606;23.388;2023-08-24T00:50:45;93935.63;;;21.88;82.29
10261;BME280;5175;42.606;23.388;2023-08-24T00:53:12;93936.63;;;21.96;81.76
10261;BME280;5175;42.606;23.388;2023-08-24T00:55:39;93929.50;;;21.91;81.59
10261;BME280;5175;42.606;23.388;2023-08-24T00:58:06;93943.50;;;21.65;84.80
10261;BME280;5175;42.606;23.388;2023-08-24T01:00:33;93944.88;;;21.47;85.71
10261;BME280;5175;42.606;23.388;2023-08-24T01:03:00;93939.59;;;21.39;86.44
10261;BME280;5175;42.606;23.388;2023-08-24T01:05:27;93947.16;;;21.45;85.75
10261;BME280;5175;42.606;23.388;2023-08-24T01:07:56;93941.28;;;21.19;87.66
10261;BME280;5175;42.606;23.388;2023-08-24T01:10:24;93941.31;;;21.07;88.97
10261;BME280;5175;42.606;23.388;2023-08-24T01:13:02;93935.66;;;21.12;88.36
10261;BME280;5175;42.606;23.388;2023-08-24T01:15:37;93922.44;;;21.10;87.65
10261;BME280;5175;42.606;23.388;2023-08-24T01:18:08;93934.88;;;21.24;87.54
10261;BME280;5175;42.606;23.388;2023-08-24T01:20:39;93939.97;;;21.13;88.41
10261;BME280;5175;42.606;23.388;2023-08-24T01:23:16;93920.47;;;20.99;88.16
10261;BME280;5175;42.606;23.388;2023-08-24T01:25:51;93943.00;;;21.11;88.04
10261;BME280;5175;42.606;23.388;2023-08-24T01:28:20;93950.44;;;21.27;87.12
10261;BME280;5175;42.606;23.388;2023-08-24T01:30:48;93940.84;;;21.17;87.53
10261;BME280;5175;42.606;23.388;2023-08-24T01:33:15;93937.19;;;21.01;89.17
10261;BME280;5175;42.606;23.388;2023-08-24T01:35:41;93931.44;;;20.90;89.96
10261;BME280;5175;42.606;23.388;2023-08-24T01:38:08;93930.56;;;21.10;87.85
10261;BME280;5175;42.606;23.388;2023-08-24T01:40:45;93940.06;;;21.29;85.81
10261;BME280;5175;42.606;23.388;2023-08-24T01:43:14;93945.03;;;21.39;85.41
10261;BME280;5175;42.606;23.388;2023-08-24T01:45:44;93930.78;;;21.05;87.65
10261;BME280;5175;42.606;23.388;2023-08-24T01:48:12;93938.78;;;21.02;88.46
10261;BME280;5175;42.606;23.388;2023-08-24T01:50:39;93940.47;;;20.70;90.75
10261;BME280;5175;42.606;23.388;2023-08-24T01:53:06;93936.97;;;20.70;90.99
10261;BME280;5175;42.606;23.388;2023-08-24T01:55:33;93937.66;;;20.79;90.54
10261;BME280;5175;42.606;23.388;2023-08-24T01:58:00;93933.00;;;21.03;88.08
10261;BME280;5175;42.606;23.388;2023-08-24T02:00:27;93928.84;;;20.82;90.21
10261;BME280;5175;42.606;23.388;2023-08-24T02:02:55;93929.16;;;20.80;89.69
10261;BME280;5175;42.606;23.388;2023-08-24T02:05:22;93930.78;;;21.05;87.83
10261;BME280;5175;42.606;23.388;2023-08-24T02:07:52;93922.09;;;21.12;86.95
10261;BME280;5175;42.606;23.388;2023-08-24T02:10:19;93936.44;;;21.12;86.92
10261;BME280;5175;42.606;23.388;2023-08-24T02:12:46;93920.81;;;20.97;87.28
10261;BME280;5175;42.606;23.388;2023-08-24T02:15:13;93934.31;;;21.18;86.21
10261;BME280;5175;42.606;23.388;2023-08-24T02:17:39;93929.88;;;21.13;86.63
10261;BME280;5175;42.606;23.388;2023-08-24T02:20:08;93935.66;;;21.12;86.58
10261;BME280;5175;42.606;23.388;2023-08-24T02:22:36;93936.84;;;20.90;88.59
10261;BME280;5175;42.606;23.388;2023-08-24T02:25:04;93943.09;;;21.03;87.33
10261;BME280;5175;42.606;23.388;2023-08-24T02:27:31;93931.09;;;20.92;88.06
10261;BME280;5175;42.606;23.388;2023-08-24T02:29:58;93938.09;;;20.69;89.82
10261;BME280;5175;42.606;23.388;2023-08-24T02:32:24;93934.84;;;20.87;87.92
10261;BME280;5175;42.606;23.388;2023-08-24T02:34:51;93946.72;;;20.95;87.72
10261;BME280;5175;42.606;23.388;2023-08-24T02:37:19;93949.06;;;20.96;87.64
10261;BME280;5175;42.606;23.388;2023-08-24T02:39:46;93947.16;;;20.97;88.45
10261;BME280;5175;42.606;23.388;2023-08-24T02:42:12;93948.94;;;20.69;90.34
10261;BME280;5175;42.606;23.388;2023-08-24T02:44:39;93954.94;;;20.74;91.18
10261;BME280;5175;42.606;23.388;2023-08-24T02:47:06;93954.13;;;20.62;91.97
10261;BME280;5175;42.606;23.388;2023-08-24T02:49:33;93947.13;;;20.60;92.39
10261;BME280;5175;42.606;23.388;2023-08-24T02:51:59;93947.25;;;20.76;89.59
10261;BME280;5175;42.606;23.388;2023-08-24T02:54:28;93945.22;;;20.85;88.59
10261;BME280;5175;42.606;23.388;2023-08-24T02:56:54;93939.47;;;20.87;88.29
10261;BME280;5175;42.606;23.388;2023-08-24T02:59:21;93940.72;;;20.89;87.93
10261;BME280;5175;42.606;23.388;2023-08-24T03:01:48;93912.00;;;20.76;88.27
10261;BME280;5175;42.606;23.388;2023-08-24T03:04:15;93930.84;;;20.73;89.74
10261;BME280;5175;42.606;23.388;2023-08-24T03:06:43;93928.84;;;20.82;88.69
10261;BME280;5175;42.606;23.388;2023-08-24T03:09:10;93927.59;;;20.67;90.02
10261;BME280;5175;42.606;23.388;2023-08-24T03:11:38;93922.84;;;20.88;87.92
10261;BME280;5175;42.606;23.388;2023-08-24T03:14:05;93926.44;;;20.80;88.32
10261;BME280;5175;42.606;23.388;2023-08-24T03:16:32;93921.81;;;20.56;89.35
10261;BME280;5175;42.606;23.388;2023-08-24T03:18:58;93916.00;;;20.34;91.61
10261;BME280;5175;42.606;23.388;2023-08-24T03:21:25;93930.56;;;20.29;91.76
10261;BME280;5175;42.606;23.388;2023-08-24T03:23:52;93923.69;;;20.32;91.76
10261;BME280;5175;42.606;23.388;2023-08-24T03:26:19;93908.16;;;20.20;91.73
10261;BME280;5175;42.606;23.388;2023-08-24T03:28:49;93924.41;;;20.20;92.02
10261;BME280;5175;42.606;23.388;2023-08-24T03:31:16;93923.22;;;20.30;92.27
10261;BME280;5175;42.606;23.388;2023-08-24T03:33:43;93925.03;;;20.26;91.97
10261;BME280;5175;42.606;23.388;2023-08-24T03:36:10;93925.53;;;20.19;92.13
10261;BME280;5175;42.606;23.388;2023-08-24T03:38:38;93943.81;;;20.10;93.45
10261;BME280;5175;42.606;23.388;2023-08-24T03:41:05;93967.69;;;20.08;93.52
10261;BME280;5175;42.606;23.388;2023-08-24T03:43:33;93968.50;;;20.09;92.52
10261;BME280;5175;42.606;23.388;2023-08-24T03:46:02;93980.69;;;20.23;92.56
10261;BME280;5175;42.606;23.388;2023-08-24T03:48:29;93977.28;;;20.26;92.29
10261;BME280;5175;42.606;23.388;2023-08-24T03:50:56;93969.03;;;20.23;92.88
10261;BME280;5175;42.606;23.388;2023-08-24T03:53:23;93987.41;;;20.17;94.61
10261;BME280;5175;42.606;23.388;2023-08-24T03:55:50;93988.47;;;20.25;93.85
10261;BME280;5175;42.606;23.388;2023-08-24T03:58:18;93986.13;;;20.35;93.22
10261;BME280;5175;42.606;23.388;2023-08-24T04:00:45;93986.59;;;20.37;93.28
10261;BME280;5175;42.606;23.388;2023-08-24T04:03:13;93991.19;;;20.25;94.72
10261;BME280;5175;42.606;23.388;2023-08-24T04:05:40;93996.78;;;20.20;95.91
10261;BME280;5175;42.606;23.388;2023-08-24T04:08:07;93999.94;;;20.22;95.80
10261;BME280;5175;42.606;23.388;2023-08-24T04:10:34;93993.47;;;20.35;95.36
10261;BME280;5175;42.606;23.388;2023-08-24T04:13:00;93987.97;;;20.43;95.17
10261;BME280;5175;42.606;23.388;2023-08-24T04:15:27;93987.53;;;20.41;94.48
10261;BME280;5175;42.606;23.388;2023-08-24T04:17:54;93965.84;;;20.41;94.56
10261;BME280;5175;42.606;23.388;2023-08-24T04:20:23;93959.84;;;20.48;94.87
10261;BME280;5175;42.606;23.388;2023-08-24T04:22:50;93970.50;;;20.53;96.10
10261;BME280;5175;42.606;23.388;2023-08-24T04:25:17;93974.25;;;20.28;98.48
10261;BME280;5175;42.606;23.388;2023-08-24T04:27:43;93972.59;;;20.15;98.62
10261;BME280;5175;42.606;23.388;2023-08-24T04:30:11;93969.69;;;20.20;97.32
10261;BME280;5175;42.606;23.388;2023-08-24T04:32:39;93971.00;;;20.14;96.19
10261;BME280;5175;42.606;23.388;2023-08-24T04:35:07;93966.59;;;20.09;96.54
10261;BME280;5175;42.606;23.388;2023-08-24T04:37:35;93955.81;;;20.00;97.14
10261;BME280;5175;42.606;23.388;2023-08-24T04:40:03;93963.38;;;19.95;96.80
10261;BME280;5175;42.606;23.388;2023-08-24T04:42:32;93959.84;;;20.15;95.62
10261;BME280;5175;42.606;23.388;2023-08-24T04:44:59;93959.63;;;20.20;95.07
10261;BME280;5175;42.606;23.388;2023-08-24T04:47:26;93962.19;;;20.05;95.05
10261;BME280;5175;42.606;23.388;2023-08-24T04:49:52;93964.81;;;20.13;94.78
10261;BME280;5175;42.606;23.388;2023-08-24T04:52:19;93973.81;;;20.26;93.83
10261;BME280;5175;42.606;23.388;2023-08-24T04:54:47;93985.72;;;20.45;92.28
10261;BME280;5175;42.606;23.388;2023-08-24T04:57:14;93994.25;;;20.68;90.47
10261;BME280;5175;42.606;23.388;2023-08-24T04:59:40;93988.59;;;20.61;90.90
10261;BME280;5175;42.606;23.388;2023-08-24T05:02:07;93995.94;;;20.73;93.61
10261;BME280;5175;42.606;23.388;2023-08-24T05:04:34;93992.31;;;20.69;94.58
10261;BME280;5175;42.606;23.388;2023-08-24T05:07:01;93988.28;;;20.75;92.83
10261;BME280;5175;42.606;23.388;2023-08-24T05:09:27;93983.19;;;20.85;92.11
10261;BME280;5175;42.606;23.388;2023-08-24T05:11:56;93983.53;;;20.96;91.95
10261;BME280;5175;42.606;23.388;2023-08-24T05:14:22;93989.13;;;21.11;92.04
10261;BME280;5175;42.606;23.388;2023-08-24T05:16:49;93981.69;;;21.20;91.89
10261;BME280;5175;42.606;23.388;2023-08-24T05:19:16;93993.75;;;21.35;92.24
10261;BME280;5175;42.606;23.388;2023-08-24T05:21:42;93987.97;;;21.37;91.95
10261;BME280;5175;42.606;23.388;2023-08-24T05:24:09;93990.38;;;21.26;91.38
10261;BME280;5175;42.606;23.388;2023-08-24T05:26:36;93992.19;;;21.10;92.84
10261;BME280;5175;42.606;23.388;2023-08-24T05:29:04;93990.25;;;21.23;91.88
10261;BME280;5175;42.606;23.388;2023-08-24T05:31:30;93993.44;;;21.25;92.85
10261;BME280;5175;42.606;23.388;2023-08-24T05:33:57;93999.19;;;21.35;92.05
10261;BME280;5175;42.606;23.388;2023-08-24T05:36:24;94001.22;;;21.38;91.62
10261;BME280;5175;42.606;23.388;2023-08-24T05:38:51;93984.72;;;21.07;93.99
10261;BME280;5175;42.606;23.388;2023-08-24T05:41:21;93996.13;;;21.25;93.06
10261;BME280;5175;42.606;23.388;2023-08-24T05:43:48;93991.94;;;21.39;92.54
10261;BME280;5175;42.606;23.388;2023-08-24T05:46:16;93996.78;;;21.58;93.47
10261;BME280;5175;42.606;23.388;2023-08-24T05:48:42;94010.13;;;21.75;91.58
10261;BME280;5175;42.606;23.388;2023-08-24T05:51:09;94007.19;;;21.80;91.36
10261;BME280;5175;42.606;23.388;2023-08-24T05:53:37;94014.41;;;21.76;92.80
10261;BME280;5175;42.606;23.388;2023-08-24T05:56:06;94004.50;;;21.56;93.95
10261;BME280;5175;42.606;23.388;2023-08-24T05:58:32;94006.19;;;21.60;94.60
10261;BME280;5175;42.606;23.388;2023-08-24T06:00:59;94010.00;;;21.83;92.81
10261;BME280;5175;42.606;23.388;2023-08-24T06:03:27;94021.22;;;21.94;91.98
10261;BME280;5175;42.606;23.388;2023-08-24T06:05:54;94021.66;;;22.08;91.54
10261;BME280;5175;42.606;23.388;2023-08-24T06:08:26;94014.06;;;22.02;91.10
10261;BME280;5175;42.606;23.388;2023-08-24T06:10:53;94019.72;;;21.97;90.08
10261;BME280;5175;42.606;23.388;2023-08-24T06:13:20;94019.56;;;22.17;89.24
10261;BME280;5175;42.606;23.388;2023-08-24T06:15:46;94027.22;;;22.27;89.33
10261;BME280;5175;42.606;23.388;2023-08-24T06:18:13;94022.72;;;22.47;88.87
10261;BME280;5175;42.606;23.388;2023-08-24T06:20:42;94025.66;;;22.54;87.29
10261;BME280;5175;42.606;23.388;2023-08-24T06:23:09;94024.31;;;22.76;85.89
10261;BME280;5175;42.606;23.388;2023-08-24T06:25:36;94026.53;;;22.86;84.01
10261;BME280;5175;42.606;23.388;2023-08-24T06:28:03;94037.41;;;22.86;84.71
10261;BME280;5175;42.606;23.388;2023-08-24T06:30:30;94036.00;;;22.76;84.74
10261;BME280;5175;42.606;23.388;2023-08-24T06:33:02;94032.47;;;22.76;84.61
10261;BME280;5175;42.606;23.388;2023-08-24T06:35:29;94032.19;;;22.93;83.42
10261;BME280;5175;42.606;23.388;2023-08-24T06:37:57;94027.72;;;23.00;85.40
10261;BME280;5175;42.606;23.388;2023-08-24T06:40:24;94022.00;;;23.05;83.17
10261;BME280;5175;42.606;23.388;2023-08-24T06:42:51;94032.78;;;23.02;84.99
10261;BME280;5175;42.606;23.388;2023-08-24T06:45:17;94032.34;;;22.84;86.53
10261;BME280;5175;42.606;23.388;2023-08-24T06:47:44;94031.53;;;22.84;88.42
10261;BME280;5175;42.606;23.388;2023-08-24T06:50:11;94022.69;;;23.02;85.86
10261;BME280;5175;42.606;23.388;2023-08-24T06:52:38;94025.16;;;23.08;86.84
10261;BME280;5175;42.606;23.388;2023-08-24T06:55:08;94026.28;;;23.06;86.97
10261;BME280;5175;42.606;23.388;2023-08-24T06:57:35;94024.75;;;23.21;87.94
10261;BME280;5175;42.606;23.388;2023-08-24T07:00:02;94036.25;;;23.61;85.04
10261;BME280;5175;42.606;23.388;2023-08-24T07:02:32;94032.97;;;24.06;81.16
10261;BME280;5175;42.606;23.388;2023-08-24T07:04:59;94023.91;;;24.37;80.33
10261;BME280;5175;42.606;23.388;2023-08-24T07:07:26;94030.72;;;24.66;78.18
10261;BME280;5175;42.606;23.388;2023-08-24T07:09:53;94018.38;;;24.72;77.41
10261;BME280;5175;42.606;23.388;2023-08-24T07:12:21;94027.31;;;24.88;76.18
10261;BME280;5175;42.606;23.388;2023-08-24T07:14:47;94025.25;;;25.04;79.42
10261;BME280;5175;42.606;23.388;2023-08-24T07:17:14;94023.59;;;25.45;75.52
10261;BME280;5175;42.606;23.388;2023-08-24T07:19:41;94013.31;;;25.58;74.83
10261;BME280;5175;42.606;23.388;2023-08-24T07:22:07;94024.53;;;25.75;72.43
10261;BME280;5175;42.606;23.388;2023-08-24T07:24:34;94022.63;;;25.79;72.84
10261;BME280;5175;42.606;23.388;2023-08-24T07:27:01;93999.22;;;25.56;72.12
10261;BME280;5175;42.606;23.388;2023-08-24T07:29:30;94012.78;;;25.75;71.91
10261;BME280;5175;42.606;23.388;2023-08-24T07:31:57;94014.72;;;25.74;72.61
10261;BME280;5175;42.606;23.388;2023-08-24T07:34:24;94011.38;;;25.84;72.27
10261;BME280;5175;42.606;23.388;2023-08-24T07:36:50;94020.63;;;26.02;70.60
10261;BME280;5175;42.606;23.388;2023-08-24T07:39:18;94017.47;;;26.00;71.04
10261;BME280;5175;42.606;23.388;2023-08-24T07:41:45;94019.41;;;26.26;69.55
10261;BME280;5175;42.606;23.388;2023-08-24T07:44:12;94008.88;;;26.28;70.03
10261;BME280;5175;42.606;23.388;2023-08-24T07:46:40;94021.84;;;26.64;66.93
10261;BME280;5175;42.606;23.388;2023-08-24T07:49:07;94019.94;;;26.68;69.38
10261;BME280;5175;42.606;23.388;2023-08-24T07:51:34;94013.25;;;26.66;68.45
10261;BME280;5175;42.606;23.388;2023-08-24T07:54:00;94023.47;;;27.02;67.12
10261;BME280;5175;42.606;23.388;2023-08-24T07:56:29;94020.94;;;27.23;65.44
10261;BME280;5175;42.606;23.388;2023-08-24T07:58:56;94013.13;;;27.25;65.78
10261;BME280;5175;42.606;23.388;2023-08-24T08:01:23;94011.41;;;27.51;64.18
10261;BME280;5175;42.606;23.388;2023-08-24T08:03:51;94013.53;;;27.27;64.91
10261;BME280;5175;42.606;23.388;2023-08-24T08:06:18;94016.03;;;27.40;65.14
10261;BME280;5175;42.606;23.388;2023-08-24T08:08:47;94013.06;;;27.59;63.23
10261;BME280;5175;42.606;23.388;2023-08-24T08:11:15;94024.50;;;27.68;63.40
10261;BME280;5175;42.606;23.388;2023-08-24T08:13:42;94018.66;;;27.76;62.90
10261;BME280;5175;42.606;23.388;2023-08-24T08:16:09;94017.59;;;27.88;62.46
10261;BME280;5175;42.606;23.388;2023-08-24T08:18:36;94026.00;;;28.13;61.86
10261;BME280;5175;42.606;23.388;2023-08-24T08:21:10;94024.66;;;27.92;65.14
10261;BME280;5175;42.606;23.388;2023-08-24T08:23:37;94026.72;;;28.03;62.65
10261;BME280;5175;42.606;23.388;2023-08-24T08:26:04;94022.50;;;28.16;63.06
10261;BME280;5175;42.606;23.388;2023-08-24T08:28:30;94032.75;;;28.26;61.51
10261;BME280;5175;42.606;23.388;2023-08-24T08:30:59;94020.41;;;28.64;60.51
10261;BME280;5175;42.606;23.388;2023-08-24T08:33:25;94018.16;;;28.90;58.63
10261;BME280;5175;42.606;23.388;2023-08-24T08:35:52;94021.34;;;29.13;58.34
10261;BME280;5175;42.606;23.388;2023-08-24T08:38:19;94020.25;;;29.43;56.63
10261;BME280;5175;42.606;23.388;2023-08-24T08:40:49;94019.09;;;29.54;54.47
10261;BME280;5175;42.606;23.388;2023-08-24T08:43:16;94022.25;;;29.63;55.47
10261;BME280;5175;42.606;23.388;2023-08-24T08:45:42;94017.13;;;29.80;53.65
10261;BME280;5175;42.606;23.388;2023-08-24T08:48:10;94014.38;;;29.90;53.22
10261;BME280;5175;42.606;23.388;2023-08-24T08:50:38;93997.06;;;29.75;54.03
10261;BME280;5175;42.606;23.388;2023-08-24T08:53:05;94000.63;;;29.94;52.13
10261;BME280;5175;42.606;23.388;2023-08-24T08:55:33;94005.69;;;30.16;53.46
10261;BME280;5175;42.606;23.388;2023-08-24T08:58:00;94003.31;;;30.43;50.84
10261;BME280;5175;42.606;23.388;2023-08-24T09:00:29;93994.25;;;30.43;52.45
10261;BME280;5175;42.606;23.388;2023-08-24T09:02:56;93993.44;;;30.49;49.82
10261;BME280;5175;42.606;23.388;2023-08-24T09:05:24;93998.06;;;30.73;49.71
10261;BME280;5175;42.606;23.388;2023-08-24T09:07:53;94005.25;;;30.53;46.67
10261;BME280;5175;42.606;23.388;2023-08-24T09:10:21;93996.50;;;30.76;48.35
10261;BME280;5175;42.606;23.388;2023-08-24T09:12:49;93997.19;;;30.87;48.59
10261;BME280;5175;42.606;23.388;2023-08-24T09:15:24;93982.97;;;31.06;47.25
10261;BME280;5175;42.606;23.388;2023-08-24T09:17:51;93986.84;;;31.16;47.43
10261;BME280;5175;42.606;23.388;2023-08-24T09:20:18;93979.47;;;30.95;47.66
10261;BME280;5175;42.606;23.388;2023-08-24T09:22:45;93985.28;;;31.15;47.73
10261;BME280;5175;42.606;23.388;2023-08-24T09:25:11;93977.38;;;31.17;47.88
10261;BME280;5175;42.606;23.388;2023-08-24T09:27:38;93973.84;;;31.13;48.56
10261;BME280;5175;42.606;23.388;2023-08-24T09:30:09;93975.34;;;31.28;47.39
10261;BME280;5175;42.606;23.388;2023-08-24T09:32:36;93967.34;;;31.47;46.45
10261;BME280;5175;42.606;23.388;2023-08-24T09:35:06;93974.41;;;31.52;45.55
10261;BME280;5175;42.606;23.388;2023-08-24T09:37:34;93972.84;;;31.44;45.68
10261;BME280;5175;42.606;23.388;2023-08-24T09:40:02;93960.50;;;31.66;45.66
10261;BME280;5175;42.606;23.388;2023-08-24T09:42:37;93964.66;;;31.85;44.89
10261;BME280;5175;42.606;23.388;2023-08-24T09:45:06;93959.19;;;31.78;45.67
10261;BME280;5175;42.606;23.388;2023-08-24T09:47:36;93960.28;;;31.87;44.12
10261;BME280;5175;42.606;23.388;2023-08-24T09:50:04;93955.09;;;31.93;43.54
10261;BME280;5175;42.606;23.388;2023-08-24T09:52:32;93951.53;;;31.99;42.91
10261;BME280;5175;42.606;23.388;2023-08-24T09:55:02;93953.06;;;32.04;42.66
10261;BME280;5175;42.606;23.388;2023-08-24T09:57:32;93951.13;;;31.97;43.73
10261;BME280;5175;42.606;23.388;2023-08-24T10:00:05;93954.13;;;32.17;42.70
10261;BME280;5175;42.606;23.388;2023-08-24T10:02:41;93949.13;;;32.39;42.31
10261;BME280;5175;42.606;23.388;2023-08-24T10:05:10;93950.25;;;32.45;42.63
10261;BME280;5175;42.606;23.388;2023-08-24T10:07:43;93949.69;;;32.60;42.59
10261;BME280;5175;42.606;23.388;2023-08-24T10:10:11;93940.16;;;32.65;41.74
10261;BME280;5175;42.606;23.388;2023-08-24T10:12:44;93940.56;;;32.94;40.98
10261;BME280;5175;42.606;23.388;2023-08-24T10:15:14;93939.78;;;32.93;40.87
10261;BME280;5175;42.606;23.388;2023-08-24T10:17:44;93948.72;;;32.74;39.68
10261;BME280;5175;42.606;23.388;2023-08-24T10:20:11;93942.78;;;33.06;40.71
10261;BME280;5175;42.606;23.388;2023-08-24T10:22:38;93941.09;;;33.38;40.23
10261;BME280;5175;42.606;23.388;2023-08-24T10:25:08;93923.34;;;33.36;39.97
10261;BME280;5175;42.606;23.388;2023-08-24T10:27:35;93936.09;;;33.57;40.55
10261;BME280;5175;42.606;23.388;2023-08-24T10:30:09;93928.94;;;33.82;39.27
10261;BME280;5175;42.606;23.388;2023-08-24T10:32:38;93925.56;;;33.94;38.88
10261;BME280;5175;42.606;23.388;2023-08-24T10:35:08;93925.88;;;33.77;38.94
10261;BME280;5175;42.606;23.388;2023-08-24T10:37:34;93928.75;;;33.93;37.88
10261;BME280;5175;42.606;23.388;2023-08-24T10:40:01;93920.56;;;33.86;37.28
10261;BME280;5175;42.606;23.388;2023-08-24T10:42:43;93918.59;;;33.86;38.23
10261;BME280;5175;42.606;23.388;2023-08-24T10:45:10;93913.44;;;33.85;37.06
10261;BME280;5175;42.606;23.388;2023-08-24T10:47:44;93922.31;;;33.99;36.30
10261;BME280;5175;42.606;23.388;2023-08-24T10:50:14;93928.09;;;33.85;35.59
10261;BME280;5175;42.606;23.388;2023-08-24T10:52:43;93923.50;;;33.98;37.31
10261;BME280;5175;42.606;23.388;2023-08-24T10:55:22;93922.78;;;33.94;36.81
10261;BME280;5175;42.606;23.388;2023-08-24T10:57:55;93914.41;;;33.98;38.57
10261;BME280;5175;42.606;23.388;2023-08-24T11:00:26;93913.69;;;33.94;36.40
10261;BME280;5175;42.606;23.388;2023-08-24T11:02:53;93908.09;;;33.51;37.91
10261;BME280;5175;42.606;23.388;2023-08-24T11:05:22;93902.34;;;33.15;37.80
10261;BME280;5175;42.606;23.388;2023-08-24T11:07:52;93897.22;;;33.14;37.53
10261;BME280;5175;42.606;23.388;2023-08-24T11:10:20;93899.94;;;33.17;38.66
10261;BME280;5175;42.606;23.388;2023-08-24T11:13:10;93884.16;;;32.61;39.81
10261;BME280;5175;42.606;23.388;2023-08-24T11:15:39;93887.53;;;32.72;38.41
10261;BME280;5175;42.606;23.388;2023-08-24T11:18:23;93880.91;;;32.93;39.21
10261;BME280;5175;42.606;23.388;2023-08-24T11:20:53;93880.97;;;32.62;38.90
10261;BME280;5175;42.606;23.388;2023-08-24T11:23:21;93872.44;;;32.50;39.11
10261;BME280;5175;42.606;23.388;2023-08-24T11:25:49;93884.38;;;32.43;38.49
10261;BME280;5175;42.606;23.388;2023-08-24T11:28:20;93895.88;;;32.04;42.25
10261;BME280;5175;42.606;23.388;2023-08-24T11:30:48;93880.03;;;31.23;44.43
10261;BME280;5175;42.606;23.388;2023-08-24T11:33:16;93875.09;;;31.01;44.16
10261;BME280;5175;42.606;23.388;2023-08-24T11:35:44;93884.81;;;31.16;44.47
10261;BME280;5175;42.606;23.388;2023-08-24T11:38:13;93885.97;;;31.22;44.91
10261;BME280;5175;42.606;23.388;2023-08-24T11:40:39;93885.59;;;31.20;45.00
10261;BME280;5175;42.606;23.388;2023-08-24T11:43:06;93898.16;;;31.24;45.76
10261;BME280;5175;42.606;23.388;2023-08-24T11:45:35;93899.53;;;30.98;46.55
10261;BME280;5175;42.606;23.388;2023-08-24T11:48:03;93905.53;;;30.79;47.27
10261;BME280;5175;42.606;23.388;2023-08-24T11:50:31;93898.09;;;30.73;48.21
10261;BME280;5175;42.606;23.388;2023-08-24T11:52:59;93890.03;;;30.27;50.14
10261;BME280;5175;42.606;23.388;2023-08-24T11:55:27;93884.56;;;30.16;50.24
10261;BME280;5175;42.606;23.388;2023-08-24T11:57:54;93873.19;;;30.14;51.04
10261;BME280;5175;42.606;23.388;2023-08-24T12:00:22;93878.25;;;30.23;49.75
10261;BME280;5175;42.606;23.388;2023-08-24T12:02:49;93869.66;;;30.14;50.89
10261;BME280;5175;42.606;23.388;2023-08-24T12:05:21;93877.53;;;30.08;51.68
10261;BME280;5175;42.606;23.388;2023-08-24T12:07:48;93871.31;;;29.87;51.45
10261;BME280;5175;42.606;23.388;2023-08-24T12:10:16;93872.91;;;29.66;51.58
10261;BME280;5175;42.606;23.388;2023-08-24T12:12:44;93866.63;;;29.66;52.45
10261;BME280;5175;42.606;23.388;2023-08-24T12:15:20;93865.44;;;29.70;52.33
10261;BME280;5175;42.606;23.388;2023-08-24T12:17:47;93851.69;;;29.70;52.62
10261;BME280;5175;42.606;23.388;2023-08-24T12:20:19;93863.47;;;29.64;53.63
10261;BME280;5175;42.606;23.388;2023-08-24T12:22:50;93870.56;;;29.68;53.79
10261;BME280;5175;42.606;23.388;2023-08-24T12:25:17;93870.22;;;29.28;56.11
10261;BME280;5175;42.606;23.388;2023-08-24T12:27:45;93882.00;;;29.32;54.42
10261;BME280;5175;42.606;23.388;2023-08-24T12:30:12;93886.31;;;29.26;55.64
10261;BME280;5175;42.606;23.388;2023-08-24T12:32:42;93887.50;;;29.25;54.02
10261;BME280;5175;42.606;23.388;2023-08-24T12:35:10;93892.19;;;29.13;55.53
10261;BME280;5175;42.606;23.388;2023-08-24T12:37:36;93890.22;;;29.14;56.36
10261;BME280;5175;42.606;23.388;2023-08-24T12:40:04;93883.94;;;29.06;56.89
10261;BME280;5175;42.606;23.388;2023-08-24T12:42:31;93878.44;;;28.96;55.91
10261;BME280;5175;42.606;23.388;2023-08-24T12:44:59;93881.19;;;28.96;54.75
10261;BME280;5175;42.606;23.388;2023-08-24T12:47:26;93860.69;;;28.54;55.05
10261;BME280;5175;42.606;23.388;2023-08-24T12:49:53;93878.34;;;28.53;54.73
10261;BME280;5175;42.606;23.388;2023-08-24T12:52:22;93882.34;;;28.70;54.42
10261;BME280;5175;42.606;23.388;2023-08-24T12:54:48;93883.41;;;28.41;57.00
10261;BME280;5175;42.606;23.388;2023-08-24T12:57:15;93892.84;;;28.47;55.51
10261;BME280;5175;42.606;23.388;2023-08-24T12:59:42;93896.06;;;28.70;56.17
10261;BME280;5175;42.606;23.388;2023-08-24T13:02:10;93890.63;;;28.91;56.54
10261;BME280;5175;42.606;23.388;2023-08-24T13:04:36;93902.00;;;29.00;55.00
10261;BME280;5175;42.606;23.388;2023-08-24T13:07:04;93899.25;;;29.07;56.08